createdAt,value
2017-07-20T00:01:31.362Z,18.00
2017-07-20T00:04:00.275Z,16.30
2017-07-20T00:06:29.176Z,17.60
2017-07-20T00:08:58.091Z,17.40
2017-07-20T00:11:26.987Z,18.87
2017-07-20T00:13:55.891Z,20.37
2017-07-20T00:16:24.798Z,20.83
2017-07-20T00:18:53.678Z,18.67
2017-07-20T00:21:22.583Z,21.00
2017-07-20T00:23:51.473Z,20.83
2017-07-20T00:26:20.388Z,17.83
2017-07-20T00:28:49.279Z,19.40
2017-07-20T00:31:18.180Z,18.87
2017-07-20T00:33:47.057Z,21.10
2017-07-20T00:36:15.961Z,20.77
2017-07-20T00:38:44.847Z,20.20
2017-07-20T00:41:13.960Z,18.43
2017-07-20T00:43:42.834Z,19.13
2017-07-20T00:46:11.725Z,22.70
2017-07-20T00:48:40.612Z,23.20
2017-07-20T00:51:09.516Z,22.23
2017-07-20T00:53:38.407Z,23.80
2017-07-20T00:56:07.311Z,24.50
2017-07-20T00:58:36.213Z,23.60
2017-07-20T01:01:05.108Z,25.20
2017-07-20T01:03:33.997Z,23.20
2017-07-20T01:06:02.887Z,24.30
2017-07-20T01:08:31.782Z,24.63
2017-07-20T01:11:00.666Z,24.10
2017-07-20T01:13:29.572Z,24.90
2017-07-20T01:15:58.441Z,25.20
2017-07-20T01:18:27.377Z,25.53
2017-07-20T01:20:56.250Z,27.80
2017-07-20T01:23:25.141Z,27.20
2017-07-20T01:25:54.024Z,27.83
2017-07-20T01:28:22.953Z,27.23
2017-07-20T01:30:51.845Z,26.07
2017-07-20T01:33:20.765Z,25.70
2017-07-20T01:35:49.650Z,27.90
2017-07-20T01:38:18.543Z,27.00
2017-07-20T01:40:47.439Z,27.50
2017-07-20T01:43:16.320Z,27.50
2017-07-20T01:45:45.218Z,29.10
2017-07-20T01:48:14.126Z,27.90
2017-07-20T01:50:43.017Z,30.13
2017-07-20T01:53:11.908Z,27.37
2017-07-20T01:55:40.829Z,27.73
2017-07-20T01:58:09.712Z,28.00
2017-07-20T02:00:38.609Z,26.57
2017-07-20T02:03:07.485Z,24.03
2017-07-20T02:05:36.408Z,29.27
2017-07-20T02:08:05.310Z,29.23
2017-07-20T02:10:34.232Z,26.97
2017-07-20T02:13:03.121Z,29.17
2017-07-20T02:15:32.044Z,23.73
2017-07-20T02:18:00.924Z,24.07
2017-07-20T02:20:29.831Z,24.70
2017-07-20T02:22:58.709Z,26.83
2017-07-20T02:25:27.589Z,27.57
2017-07-20T02:27:56.494Z,25.47
2017-07-20T02:30:25.379Z,24.73
2017-07-20T02:32:54.274Z,23.50
2017-07-20T02:35:23.175Z,26.20
2017-07-20T02:37:52.083Z,25.30
2017-07-20T02:40:20.976Z,24.50
2017-07-20T02:42:49.886Z,25.07
2017-07-20T02:45:18.789Z,26.93
2017-07-20T02:47:47.724Z,24.63
2017-07-20T02:50:16.615Z,24.83
2017-07-20T02:52:45.535Z,26.20
2017-07-20T02:55:14.429Z,25.13
2017-07-20T02:57:43.345Z,24.23
2017-07-20T03:00:12.226Z,26.43
2017-07-20T03:02:41.132Z,26.67
2017-07-20T03:05:10.019Z,26.83
2017-07-20T03:07:38.902Z,26.73
2017-07-20T03:10:07.814Z,28.17
2017-07-20T03:12:36.708Z,26.97
2017-07-20T03:15:05.610Z,30.13
2017-07-20T03:17:34.496Z,27.30
2017-07-20T03:20:03.417Z,29.93
2017-07-20T03:22:38.204Z,25.70
2017-07-20T03:25:07.102Z,28.57
2017-07-20T03:27:35.991Z,26.00
2017-07-20T03:30:04.906Z,28.40
2017-07-20T03:32:33.794Z,27.70
2017-07-20T03:35:02.698Z,25.17
2017-07-20T03:37:31.584Z,26.43
2017-07-20T03:40:00.478Z,25.07
2017-07-20T03:42:29.361Z,27.37
2017-07-20T03:44:58.271Z,24.57
2017-07-20T03:47:27.145Z,24.93
2017-07-20T03:49:56.029Z,26.80
2017-07-20T03:52:24.930Z,27.77
2017-07-20T03:54:53.814Z,26.80
2017-07-20T03:57:22.709Z,23.00
2017-07-20T03:59:51.603Z,23.07
2017-07-20T04:02:20.517Z,23.70
2017-07-20T04:04:49.418Z,21.10
2017-07-20T04:07:18.320Z,20.80
2017-07-20T04:09:47.197Z,22.37
2017-07-20T04:12:16.110Z,22.20
2017-07-20T04:14:44.992Z,23.07
2017-07-20T04:17:13.922Z,21.40
2017-07-20T04:19:42.813Z,21.13
2017-07-20T04:22:11.714Z,20.77
2017-07-20T04:24:40.609Z,19.40
2017-07-20T04:27:09.514Z,21.97
2017-07-20T04:29:38.397Z,21.13
2017-07-20T04:32:07.283Z,18.87
2017-07-20T04:34:36.191Z,18.80
2017-07-20T04:37:05.091Z,18.60
2017-07-20T04:39:33.998Z,18.30
2017-07-20T04:42:02.894Z,18.27
2017-07-20T04:44:31.795Z,18.60
2017-07-20T04:47:00.689Z,18.70
2017-07-20T04:49:29.592Z,21.13
2017-07-20T04:51:58.478Z,18.70
2017-07-20T04:54:27.384Z,19.60
2017-07-20T04:56:56.279Z,21.20
2017-07-20T04:59:25.188Z,20.23
2017-07-20T05:01:54.072Z,20.20
2017-07-20T05:04:22.991Z,20.80
2017-07-20T05:06:51.892Z,20.20
2017-07-20T05:09:20.805Z,19.50
2017-07-20T05:11:49.681Z,19.77
2017-07-20T05:14:18.574Z,19.83
2017-07-20T05:16:47.493Z,20.40
2017-07-20T05:19:16.393Z,19.47
2017-07-20T05:21:45.304Z,18.93
2017-07-20T05:24:14.187Z,18.40
2017-07-20T05:26:43.103Z,18.30
2017-07-20T05:29:12.002Z,19.63
2017-07-20T05:31:40.935Z,21.10
2017-07-20T05:34:09.819Z,19.97
2017-07-20T05:36:38.743Z,21.63
2017-07-20T05:39:07.724Z,19.63
2017-07-20T05:41:36.630Z,21.90
2017-07-20T05:44:05.519Z,23.40
2017-07-20T05:46:34.443Z,21.60
2017-07-20T05:49:03.322Z,22.80
2017-07-20T05:51:32.222Z,23.77
2017-07-20T05:54:01.111Z,23.10
2017-07-20T05:56:30.025Z,26.10
2017-07-20T05:58:58.929Z,23.73
2017-07-20T06:01:27.831Z,23.23
2017-07-20T06:03:56.756Z,24.70
2017-07-20T06:06:25.632Z,22.50
2017-07-20T06:08:54.535Z,23.63
2017-07-20T06:11:23.426Z,24.10
2017-07-20T06:13:52.339Z,24.70
2017-07-20T06:16:21.248Z,25.80
2017-07-20T06:18:50.159Z,26.13
2017-07-20T06:21:19.050Z,23.20
2017-07-20T06:23:47.947Z,23.53
2017-07-20T06:26:16.849Z,25.50
2017-07-20T06:28:45.747Z,26.03
2017-07-20T06:31:14.634Z,28.20
2017-07-20T06:33:43.547Z,25.40
2017-07-20T06:36:12.434Z,26.47
2017-07-20T06:38:41.310Z,25.73
2017-07-20T06:41:10.246Z,25.10
2017-07-20T06:43:39.149Z,24.57
2017-07-20T06:46:08.065Z,22.40
2017-07-20T06:48:36.958Z,24.27
2017-07-20T06:51:05.879Z,21.67
2017-07-20T06:53:34.762Z,22.60
2017-07-20T06:56:03.654Z,19.80
2017-07-20T06:58:32.565Z,21.50
2017-07-20T07:01:01.508Z,20.70
2017-07-20T07:03:30.393Z,19.43
2017-07-20T07:05:59.331Z,16.83
2017-07-20T07:08:28.218Z,17.97
2017-07-20T07:10:57.130Z,19.20
2017-07-20T07:13:26.015Z,17.50
2017-07-20T07:15:54.927Z,14.40
2017-07-20T07:18:23.823Z,16.33
2017-07-20T07:20:52.766Z,12.10
2017-07-20T07:23:21.654Z,12.43
2017-07-20T07:25:50.613Z,11.20
2017-07-20T07:28:19.533Z,10.53
2017-07-20T07:30:47.095Z,9.40
2017-07-20T07:33:15.106Z,10.50
2017-07-20T07:35:42.654Z,7.53
2017-07-20T07:38:10.211Z,10.40
2017-07-20T07:40:37.831Z,7.00
2017-07-20T07:43:05.374Z,7.10
2017-07-20T07:45:33.007Z,9.93
2017-07-20T07:48:00.548Z,5.87
2017-07-20T07:50:28.081Z,6.93
2017-07-20T07:52:55.635Z,6.07
2017-07-20T07:55:23.205Z,6.53
2017-07-20T07:57:50.769Z,6.87
2017-07-20T08:00:19.088Z,8.53
2017-07-20T08:02:46.639Z,7.10
2017-07-20T08:05:14.201Z,7.23
2017-07-20T08:07:42.870Z,4.73
2017-07-20T08:10:10.439Z,5.00
2017-07-20T08:12:37.974Z,5.47
2017-07-20T08:15:06.325Z,4.87
2017-07-20T08:17:33.854Z,6.27
2017-07-20T08:20:01.417Z,6.63
2017-07-20T08:22:28.954Z,5.27
2017-07-20T08:24:57.851Z,8.50
2017-07-20T08:27:26.743Z,6.13
2017-07-20T08:29:55.675Z,8.37
2017-07-20T08:32:24.550Z,4.70
2017-07-20T08:34:53.475Z,6.47
2017-07-20T08:37:22.399Z,6.87
2017-07-20T08:39:51.292Z,6.23
2017-07-20T08:42:20.219Z,5.70
2017-07-20T08:44:49.102Z,5.67
2017-07-20T08:47:18.017Z,7.70
2017-07-20T08:49:46.895Z,7.00
2017-07-20T08:52:15.876Z,7.87
2017-07-20T08:54:44.756Z,7.03
2017-07-20T08:57:13.665Z,8.30
2017-07-20T08:59:42.535Z,6.57
2017-07-20T09:02:11.450Z,6.93
2017-07-20T09:04:40.334Z,7.90
2017-07-20T09:07:09.276Z,5.77
2017-07-20T09:09:38.183Z,5.93
2017-07-20T09:12:07.091Z,7.07
2017-07-20T09:14:35.990Z,7.60
2017-07-20T09:17:04.912Z,7.47
2017-07-20T09:19:33.798Z,6.93
2017-07-20T09:22:02.716Z,7.28
2017-07-20T09:24:31.645Z,8.07
2017-07-20T09:27:00.546Z,8.48
2017-07-20T09:29:28.103Z,8.10
2017-07-20T09:31:57.000Z,8.73
2017-07-20T09:34:24.571Z,8.55
2017-07-20T09:36:52.138Z,8.50
2017-07-20T09:39:19.681Z,9.07
2017-07-20T09:41:47.203Z,8.63
2017-07-20T09:44:14.755Z,11.00
2017-07-20T09:46:42.305Z,8.30
2017-07-20T09:49:09.859Z,7.43
2017-07-20T09:51:37.421Z,6.70
2017-07-20T09:54:04.968Z,8.27
2017-07-20T09:56:32.507Z,6.78
2017-07-20T09:59:00.050Z,11.10
2017-07-20T10:01:28.347Z,7.75
2017-07-20T10:03:55.867Z,8.02
2017-07-20T10:06:23.432Z,5.80
2017-07-20T10:08:52.318Z,9.23
2017-07-20T10:11:19.870Z,6.95
2017-07-20T10:13:47.423Z,7.05
2017-07-20T10:16:16.491Z,6.12
2017-07-20T10:18:44.035Z,6.25
2017-07-20T10:21:12.714Z,6.03
2017-07-20T10:23:40.249Z,7.03
2017-07-20T10:26:08.570Z,6.45
2017-07-20T10:28:36.104Z,7.53
2017-07-20T10:31:05.016Z,6.05
2017-07-20T10:33:33.883Z,6.18
2017-07-20T10:36:02.781Z,5.72
2017-07-20T10:38:31.662Z,6.32
2017-07-20T10:41:00.539Z,6.22
2017-07-20T10:43:29.475Z,6.68
2017-07-20T10:45:58.392Z,6.78
2017-07-20T10:48:27.287Z,5.97
2017-07-20T10:50:56.174Z,8.27
2017-07-20T10:53:25.083Z,6.12
2017-07-20T10:55:53.955Z,6.03
2017-07-20T10:58:22.856Z,6.55
2017-07-20T11:00:51.759Z,7.18
2017-07-20T11:03:20.661Z,6.20
2017-07-20T11:05:49.537Z,5.35
2017-07-20T11:08:18.436Z,6.35
2017-07-20T11:10:47.305Z,6.50
2017-07-20T11:13:16.209Z,6.65
2017-07-20T11:15:45.111Z,6.87
2017-07-20T11:18:14.024Z,5.80
2017-07-20T11:20:42.914Z,8.13
2017-07-20T11:23:11.810Z,6.25
2017-07-20T11:25:40.735Z,7.80
2017-07-20T11:28:09.623Z,5.93
2017-07-20T11:30:38.522Z,6.60
2017-07-20T11:33:07.412Z,6.80
2017-07-20T11:35:36.313Z,6.03
2017-07-20T11:38:05.189Z,7.65
2017-07-20T11:40:34.100Z,7.12
2017-07-20T11:43:02.974Z,8.05
2017-07-20T11:45:31.873Z,6.87
2017-07-20T11:48:00.747Z,8.20
2017-07-20T11:50:29.658Z,7.47
2017-07-20T11:52:58.545Z,7.12
2017-07-20T11:55:27.432Z,6.30
2017-07-20T11:57:56.306Z,7.60
2017-07-20T12:00:25.218Z,6.70
2017-07-20T12:02:54.111Z,8.65
2017-07-20T12:05:23.001Z,6.82
2017-07-20T12:07:51.890Z,8.82
2017-07-20T12:10:20.772Z,6.78
2017-07-20T12:12:49.667Z,8.23
2017-07-20T12:15:18.555Z,7.18
2017-07-20T12:17:48.266Z,6.60
2017-07-20T12:20:17.171Z,7.78
2017-07-20T12:22:46.116Z,6.55
2017-07-20T12:25:15.013Z,12.27
2017-07-20T12:27:43.947Z,6.50
2017-07-20T12:30:12.893Z,7.60
2017-07-20T12:32:40.443Z,10.32
2017-07-20T12:35:09.331Z,6.90
2017-07-20T12:37:38.239Z,7.30
2017-07-20T12:40:07.119Z,7.10
2017-07-20T12:42:36.024Z,7.50
2017-07-20T12:45:04.059Z,11.63
2017-07-20T12:47:31.662Z,7.90
2017-07-20T12:50:00.559Z,8.35
2017-07-20T12:52:29.439Z,7.40
2017-07-20T12:54:58.335Z,6.55
2017-07-20T12:57:27.230Z,8.05
2017-07-20T12:59:56.118Z,7.35
2017-07-20T13:02:25.001Z,6.85
2017-07-20T13:04:54.018Z,7.93
2017-07-20T13:07:22.889Z,7.03
2017-07-20T13:09:51.852Z,7.57
2017-07-20T13:12:20.953Z,6.70
2017-07-20T13:14:49.868Z,7.03
2017-07-20T13:17:18.781Z,7.07
2017-07-20T13:19:47.717Z,7.82
2017-07-20T13:22:16.603Z,7.75
2017-07-20T13:24:45.507Z,7.62
2017-07-20T13:27:14.378Z,7.37
2017-07-20T13:29:43.271Z,9.05
2017-07-20T13:32:12.167Z,6.80
2017-07-20T13:34:41.059Z,8.45
2017-07-20T13:37:09.982Z,7.72
2017-07-20T13:39:38.907Z,7.40
2017-07-20T13:42:07.819Z,7.68
2017-07-20T13:44:36.707Z,8.15
2017-07-20T13:47:05.639Z,8.98
2017-07-20T13:49:34.522Z,8.10
2017-07-20T13:52:03.414Z,8.35
2017-07-20T13:54:32.298Z,9.45
2017-07-20T13:57:01.192Z,10.13
2017-07-20T13:59:30.076Z,7.30
2017-07-20T14:01:58.989Z,12.35
2017-07-20T14:04:27.880Z,12.70
2017-07-20T14:06:56.805Z,9.85
2017-07-20T14:09:25.700Z,8.55
2017-07-20T14:11:54.627Z,7.97
2017-07-20T14:14:23.534Z,8.10
2017-07-20T14:16:52.207Z,9.18
2017-07-20T14:19:21.106Z,10.52
2017-07-20T14:21:49.991Z,8.57
2017-07-20T14:24:18.874Z,8.50
2017-07-20T14:26:47.766Z,9.43
2017-07-20T14:29:16.686Z,10.07
2017-07-20T14:31:45.594Z,8.40
2017-07-20T14:34:14.547Z,10.52
2017-07-20T14:36:43.434Z,9.60
2017-07-20T14:39:12.345Z,9.80
2017-07-20T14:41:41.233Z,12.07
2017-07-20T14:44:10.162Z,10.93
2017-07-20T14:46:39.054Z,9.83
2017-07-20T14:49:07.960Z,10.48
2017-07-20T14:51:36.849Z,9.63
2017-07-20T14:54:05.753Z,9.93
2017-07-20T14:56:34.652Z,9.48
2017-07-20T14:59:03.521Z,11.50
2017-07-20T15:01:32.409Z,9.23
2017-07-20T15:04:01.292Z,9.17
2017-07-20T15:06:30.190Z,10.30
2017-07-20T15:08:59.062Z,7.70
2017-07-20T15:11:28.048Z,6.97
2017-07-20T15:13:56.930Z,12.20
2017-07-20T15:16:25.844Z,10.53
2017-07-20T15:18:54.730Z,10.93
2017-07-20T15:21:23.623Z,6.87
2017-07-20T15:23:52.534Z,8.27
2017-07-20T15:26:21.485Z,7.77
2017-07-20T15:28:50.393Z,10.10
2017-07-20T15:31:19.292Z,7.80
2017-07-20T15:33:48.233Z,7.73
2017-07-20T15:36:17.123Z,9.80
2017-07-20T15:38:46.037Z,13.93
2017-07-20T15:41:14.930Z,9.53
2017-07-20T15:43:43.828Z,9.93
2017-07-20T15:46:12.701Z,9.20
2017-07-20T15:48:41.599Z,11.03
2017-07-20T15:51:10.486Z,8.40
2017-07-20T15:53:39.387Z,8.47
2017-07-20T15:56:08.270Z,9.43
2017-07-20T15:58:37.162Z,9.80
2017-07-20T16:01:06.048Z,8.77
2017-07-20T16:03:34.945Z,12.40
2017-07-20T16:06:03.835Z,9.90
2017-07-20T16:08:32.749Z,8.97
2017-07-20T16:11:01.659Z,12.43
2017-07-20T16:13:30.592Z,12.10
2017-07-20T16:15:59.478Z,10.03
2017-07-20T16:18:28.386Z,13.80
2017-07-20T16:20:57.284Z,10.60
2017-07-20T16:23:26.168Z,10.73
2017-07-20T16:25:55.059Z,10.30
2017-07-20T16:28:23.940Z,10.73
2017-07-20T16:30:52.833Z,7.40
2017-07-20T16:33:21.736Z,9.83
2017-07-20T16:35:50.643Z,6.77
2017-07-20T16:38:19.533Z,9.63
2017-07-20T16:40:48.426Z,7.00
2017-07-20T16:43:17.317Z,10.17
2017-07-20T16:45:46.222Z,7.63
2017-07-20T16:48:15.129Z,7.77
2017-07-20T16:50:44.045Z,8.90
2017-07-20T16:53:12.916Z,7.73
2017-07-20T16:55:41.809Z,7.80
2017-07-20T16:58:10.695Z,9.20
2017-07-20T17:00:39.583Z,9.10
2017-07-20T17:03:08.472Z,8.00
2017-07-20T17:05:37.380Z,8.57
2017-07-20T17:08:06.266Z,8.90
2017-07-20T17:10:35.144Z,9.87
2017-07-20T17:13:04.955Z,11.90
2017-07-20T17:15:33.838Z,10.53
2017-07-20T17:18:02.740Z,11.67
2017-07-20T17:20:31.630Z,8.67
2017-07-20T17:23:00.543Z,10.17
2017-07-20T17:25:29.441Z,10.00
2017-07-20T17:27:58.336Z,8.93
2017-07-20T17:30:27.220Z,8.60
2017-07-20T17:32:56.123Z,10.10
2017-07-20T17:35:25.002Z,13.13
2017-07-20T17:37:53.910Z,9.67
2017-07-20T17:40:22.786Z,10.17
2017-07-20T17:42:51.695Z,10.07
2017-07-20T17:45:20.600Z,9.83
2017-07-20T17:47:49.579Z,11.07
2017-07-20T17:50:18.484Z,9.30
2017-07-20T17:52:47.380Z,10.20
2017-07-20T17:55:16.275Z,10.43
2017-07-20T17:57:45.173Z,13.17
2017-07-20T18:00:14.096Z,10.27
2017-07-20T18:02:42.986Z,10.47
2017-07-20T18:05:11.956Z,11.10
2017-07-20T18:07:40.862Z,12.97
2017-07-20T18:10:09.753Z,10.53
2017-07-20T18:12:38.631Z,12.03
2017-07-20T18:15:07.539Z,10.90
2017-07-20T18:17:36.476Z,10.43
2017-07-20T18:20:05.380Z,10.70
2017-07-20T18:22:34.304Z,10.73
2017-07-20T18:25:03.222Z,9.67
2017-07-20T18:27:32.131Z,9.67
2017-07-20T18:30:01.039Z,11.23
2017-07-20T18:32:29.937Z,8.83
2017-07-20T18:34:58.819Z,7.17
2017-07-20T18:37:27.716Z,9.03
2017-07-20T18:39:56.613Z,7.20
2017-07-20T18:42:25.526Z,9.67
2017-07-20T18:44:54.412Z,8.53
2017-07-20T18:47:23.311Z,9.33
2017-07-20T18:49:52.196Z,9.20
2017-07-20T18:52:21.098Z,7.67
2017-07-20T18:54:49.982Z,8.40
2017-07-20T18:57:18.877Z,7.70
2017-07-20T18:59:47.750Z,7.20
2017-07-20T19:02:16.663Z,6.83
2017-07-20T19:04:45.541Z,6.60
2017-07-20T19:07:14.431Z,8.67
2017-07-20T19:09:43.344Z,5.30
2017-07-20T19:12:12.235Z,5.57
2017-07-20T19:14:41.138Z,6.97
2017-07-20T19:17:10.020Z,6.90
2017-07-20T19:19:38.906Z,6.53
2017-07-20T19:22:07.789Z,11.10
2017-07-20T19:24:36.687Z,7.83
2017-07-20T19:27:05.584Z,5.73
2017-07-20T19:29:34.482Z,6.27
2017-07-20T19:34:32.285Z,6.53
2017-07-20T19:37:01.168Z,6.70
2017-07-20T19:39:30.062Z,7.03
2017-07-20T19:41:58.933Z,6.33
2017-07-20T19:44:27.819Z,6.67
2017-07-20T19:46:56.703Z,8.80
2017-07-20T19:49:25.610Z,8.93
2017-07-20T19:51:54.499Z,7.20
2017-07-20T19:54:23.431Z,6.20
2017-07-20T19:56:52.314Z,6.87
2017-07-20T19:59:21.185Z,6.63
2017-07-20T20:01:50.091Z,7.30
2017-07-20T20:04:18.992Z,7.10
2017-07-20T20:06:47.894Z,7.63
2017-07-20T20:09:16.782Z,7.60
2017-07-20T20:11:45.663Z,7.80
2017-07-20T20:14:14.554Z,8.07
2017-07-20T20:16:43.443Z,8.77
2017-07-20T20:19:12.320Z,9.20
2017-07-20T20:21:41.282Z,8.57
2017-07-20T20:24:10.252Z,9.43
2017-07-20T20:26:39.149Z,8.67
2017-07-20T20:29:08.013Z,7.90
2017-07-20T20:31:36.942Z,9.07
2017-07-20T20:34:05.822Z,10.17
2017-07-20T20:36:34.710Z,8.60
2017-07-20T20:39:03.603Z,9.27
2017-07-20T20:41:32.504Z,8.73
2017-07-20T20:44:01.404Z,9.33
2017-07-20T20:46:30.279Z,10.20
2017-07-20T20:48:59.184Z,9.47
2017-07-20T20:51:28.094Z,10.17
2017-07-20T20:53:57.032Z,10.50
2017-07-20T20:56:25.935Z,9.20
2017-07-20T20:58:54.830Z,10.27
2017-07-20T21:01:23.762Z,9.00
2017-07-20T21:03:52.662Z,11.47
2017-07-20T21:06:21.527Z,9.97
2017-07-20T21:08:50.438Z,9.40
2017-07-20T21:11:19.309Z,9.30
2017-07-20T21:13:48.211Z,9.70
2017-07-20T21:16:17.105Z,10.00
2017-07-20T21:18:45.987Z,10.30
2017-07-20T21:21:14.886Z,9.73
2017-07-20T21:23:43.772Z,10.83
2017-07-20T21:26:12.701Z,12.27
2017-07-20T21:28:41.582Z,11.23
2017-07-20T21:31:10.491Z,10.27
2017-07-20T21:33:39.370Z,11.03
2017-07-20T21:36:08.261Z,11.87
2017-07-20T21:38:37.151Z,11.57
2017-07-20T21:41:06.068Z,12.53
2017-07-20T21:43:34.984Z,11.27
2017-07-20T21:46:03.904Z,10.30
2017-07-20T21:48:32.796Z,11.20
2017-07-20T21:51:01.708Z,12.70
2017-07-20T21:53:30.582Z,11.00
2017-07-20T21:55:59.483Z,11.13
2017-07-20T21:58:28.368Z,10.60
2017-07-20T22:00:57.279Z,11.60
2017-07-20T22:03:26.167Z,11.70
2017-07-20T22:05:55.056Z,12.37
2017-07-20T22:08:23.943Z,11.67
2017-07-20T22:10:52.834Z,11.20
2017-07-20T22:13:21.726Z,10.43
2017-07-20T22:15:50.619Z,11.20
2017-07-20T22:18:19.508Z,10.60
2017-07-20T22:20:48.387Z,12.23
2017-07-20T22:23:17.283Z,11.73
2017-07-20T22:25:46.152Z,12.10
2017-07-20T22:28:15.060Z,11.90
2017-07-20T22:30:43.943Z,12.80
2017-07-20T22:33:12.832Z,12.83
2017-07-20T22:35:41.701Z,12.00
2017-07-20T22:38:10.611Z,11.67
2017-07-20T22:40:39.507Z,13.30
2017-07-20T22:43:08.383Z,12.37
2017-07-20T22:45:37.277Z,13.70
2017-07-20T22:48:06.156Z,12.87
2017-07-20T22:50:35.060Z,12.77
2017-07-20T22:53:03.949Z,12.53
2017-07-20T22:55:32.845Z,11.80
2017-07-20T22:58:01.753Z,12.50
2017-07-20T23:00:30.663Z,12.87
2017-07-20T23:02:59.551Z,13.37
2017-07-20T23:05:28.449Z,13.50
2017-07-20T23:07:57.339Z,12.33
2017-07-20T23:10:26.246Z,13.00
2017-07-20T23:12:55.133Z,13.43
2017-07-20T23:15:24.041Z,13.67
2017-07-20T23:17:52.927Z,13.13
2017-07-20T23:20:21.846Z,14.27
2017-07-20T23:22:50.735Z,14.10
2017-07-20T23:25:19.652Z,14.10
2017-07-20T23:27:48.546Z,14.03
2017-07-20T23:30:17.421Z,15.30
2017-07-20T23:32:46.328Z,14.57
2017-07-20T23:35:15.212Z,14.13
2017-07-20T23:37:44.107Z,15.30
2017-07-20T23:40:12.985Z,16.60
2017-07-20T23:42:41.887Z,15.03
2017-07-20T23:45:10.770Z,14.77
2017-07-20T23:47:39.681Z,16.00
2017-07-20T23:50:08.553Z,14.37
2017-07-20T23:52:37.466Z,15.40
2017-07-20T23:55:06.362Z,15.13
2017-07-20T23:57:35.272Z,15.70
